Flight Track Log - Related Links

Times and Time Zones

All times are in EDT time to prevent confusion due to time zone crossing. See the UAL4191 flight status page for this flight to view local times or setup timezone preferences in your user account.

Time Position Orientation Groundspeed Altitude Reporting Facility
EDT Latitude Longitude Course Direction KTS MPH feet Rate Location/Type
Thu 02:21:56 PM 44.5025 -73.2114 196° South 201 231 2,600  Level Boston Center
Thu 02:22:56 PM 44.4625 -73.2633 223° Southwest 153 176 4,800 2,600 Climbing Boston Center
Thu 02:23:56 PM 44.3936 -73.2797 190° South 236 272 7,800 2,850 Climbing Boston Center
Thu 02:24:00 PM 44.2481 -73.2208 196° South  Level FlightAware Approximate
Thu 02:24:56 PM 44.3186 -73.3019 192° South 262 302 10,500  Level Boston Center
Thu 02:25:00 PM 44.1787 -73.2553 190° South  Level FlightAware Approximate
Thu 02:25:56 PM 44.2308 -73.3267 191° South 306 352 11,800  Level Boston Center
Thu 02:26:00 PM 44.1051 -73.2737 190° South  Level FlightAware Approximate
Thu 02:26:56 PM 44.1286 -73.3569 192° South 359 413 12,800  Level Boston Center
Thu 02:27:00 PM 44.0323 -73.2971 196° South  Level FlightAware Approximate
Thu 02:27:56 PM 44.0178 -73.3869 191° South 395 455 14,000  Level Boston Center
Thu 02:28:56 PM 43.9050 -73.4197 192° South 413 475 15,900 1,850 Climbing Boston Center
Thu 02:29:56 PM 43.7944 -73.4497 191° South 413 475 17,700 1,450 Climbing Boston Center
Thu 02:30:56 PM 43.6794 -73.4822 192° South 418 481 18,800 1,550 Climbing Boston Center
Thu 02:31:56 PM 43.5542 -73.5144 191° South 418 481 20,800 1,600 Climbing Boston Center
Thu 02:32:56 PM 43.4392 -73.5467 192° South 423 487 22,000 600 Climbing Boston Center
Thu 02:33:56 PM 43.3158 -73.5786 191° South 433 498 22,000  Level Boston Center
Thu 02:34:56 PM 43.1864 -73.6161 192° South 457 526 22,000 -450 Level Boston Center
Thu 02:35:56 PM 43.0647 -73.6678 197° South 462 532 21,100 -1,350 Descending Boston Center
Thu 02:36:56 PM 42.9456 -73.7222 198° South 467 537 19,300 -1,500 Descending Boston Center
Thu 02:37:56 PM 42.8428 -73.7653 197° South 448 516 18,100 -1,050 Descending Boston Center
Thu 02:38:56 PM 42.7214 -73.8219 199° South 426 490 17,200 -1,050 Descending Boston Center
Thu 02:39:56 PM 42.6103 -73.8703 198° South 426 490 16,000 -600 Descending Boston Center
Thu 02:40:56 PM 42.4972 -73.9156 196° South 426 490 16,000  Level Boston Center
Thu 02:41:56 PM 42.3861 -73.9664 199° South 426 490 16,000  Level Boston Center
Thu 02:42:56 PM 42.2747 -74.0142 198° South 426 490 16,000  Level Boston Center
Thu 02:43:56 PM 42.1658 -74.0647 199° South 426 490 16,000 -200 Level Boston Center
Thu 02:44:56 PM 42.0544 -74.1150 199° South 426 490 15,600 -900 Descending Boston Center
Thu 02:45:56 PM 41.9581 -74.1569 198° South 426 490 14,200 -1,750 Descending Boston Center
Thu 02:46:56 PM 41.8447 -74.2042 197° South 400 460 12,100 -1,750 Descending Boston Center
Thu 02:47:56 PM 41.7669 -74.2408 199° South 361 415 10,700 -1,500 Descending Boston Center
Thu 02:48:56 PM 41.6769 -74.2772 197° South 320 368 9,100 -1,600 Descending Boston Center
Thu 02:49:56 PM 41.6056 -74.3086 198° South 303 349 7,500 -1,050 Descending Boston Center
Thu 02:50:56 PM 41.5236 -74.3450 198° South 289 333 7,000 -134 Descending Boston Center
Thu 02:52:55 PM 41.3833 -74.4000 196° South 280 322 7,100 -101 Climbing New York TRACON
Thu 02:53:55 PM 41.3167 -74.3667 159° South 275 316 6,700 -500 Descending New York TRACON
Thu 02:54:55 PM 41.2500 -74.3167 151° Southeast 262 302 6,100 -762 Descending New York TRACON
Thu 02:56:01 PM 41.1667 -74.2667 156° South 260 299 5,100 -500 Descending New York TRACON
Thu 02:56:55 PM 41.1167 -74.2333 153° Southeast 259 298 5,100 -53 Level New York TRACON
Thu 02:57:55 PM 41.0500 -74.1833 151° Southeast 263 303 5,000 -500 Descending New York TRACON
Thu 02:58:55 PM 40.9833 -74.1500 159° South 262 302 4,100 -600 Descending New York TRACON
Thu 02:59:55 PM 40.9167 -74.1167 159° South 251 289 3,800 -600 Descending New York TRACON
Thu 03:00:55 PM 40.8500 -74.1000 169° South 241 277 2,900 -800 Descending New York TRACON
Thu 03:01:55 PM 40.7833 -74.1000 180° South 217 250 2,200 -700 Descending New York TRACON

Login

Don't have an account? Register now (free) for customized features, flight alerts, and more!